Terminal Aerodrome Forecast
Issued by NWS

Home | Current Version | Previous Version | Text Only | Print | Product List | Glossary On
Versions: 1 2 3 4 5 6 7 8 9 10 11 12 13 14 15 16
000
FTUS43 KDDC 242323
TAFHYS
TAF
KHYS 242323Z 2500/2524 05011G18KT P6SM VCTS BKN045CB
     FM250600 02006KT P6SM VCTS BKN050CB
      TEMPO 2507/2511 4SM -TSRA OVC015CB
     FM251500 03008KT P6SM OVC025=

USA.gov is the U.S. government's official web portal to all federal, state and local government web resources and services.